Lake Placid, NY

7:51 PM EST on November 22, 2014 (GMT -0500)
Intervale Lowlands | Change Station
CLOSE
Current Station
Personal Weather Station
Location: Lake Placid, NY
Elevation: 1680 ft
Nearby Weather Stations

Elev 1680 ft 44.27 °N, 73.95 °W | Updated 57 seconds ago

Rain
Rain
36.7 °F
Feels Like 31 °F
N
7.0
Wind Variable Wind from West
Gusts 12.0 mph

Today
High -- | Low -- °F
--% Chance of Precip.
Yesterday
High -- | Low -- °F
Precip. -- in
7:00 AM 4:22 PM
New Moon, 0% visible
Pressure 29.96 in
Visibility 4.0 miles
Clouds Overcast 700 ft
Windchill 31 °F
Dew Point 36 °F
Humidity 94%
Rainfall 0.11 in
Snow Depth Not available.
UV 0 out of 12
Pollen .10 out of 12
Air Quality Not available.
Flu Activity Not available.
METAR KSLK 222351Z AUTO 22015KT 4SM BR OVC007 01/M01 A2990 RMK AO2 SLP145 60002 I1000 I6001 T00111006 10011 20000 51007

More Conditions Fewer Conditions

Pressure 29.96 in
Visibility 4.0 miles
Clouds Overcast 700 ft
Windchill 31 °F
Dew Point 36 °F
Humidity 94%
Rainfall 0.11 in
Snow Depth Not available.
UV 0 out of 12
Pollen .10 out of 12
Air Quality Not available.
Flu Activity Not available.
METAR KSLK 222351Z AUTO 22015KT 4SM BR OVC007 01/M01 A2990 RMK AO2 SLP145 60002 I1000 I6001 T00111006 10011 20000 51007

More Conditions Fewer Conditions

10-Day Weather Forecast

Almanac

Astronomy

Nov. 22, 2014 Rise Set
Actual Time
Civil Twilight
Nautical Twilight
Astronomical Twilight
Moon
Length of Visible Light
Length of Day
Tomorrow will be .
, % of the Moon is Illuminated

Today's Extremes

State Highs State Lows

Community

WunderPhotos

Upload Photos

1,772,938 photos uploaded!

WunderBlogs® & News

Nearby

Air Quality

  Air Quality AQ Index Pollutant
Not available.

Snow Depth

Station Depth Elevation

Earthquake Activity

City Distance Mag. Time & Date
Minimum magnitude displayed is 2.5.

Coastal Water Temperatures

Place Temperature

Nearby Weather Stations